Time;durP1;ratioP1;P1;durP2;ratioP2;P2;SDS_P1;SDS_P2;PMS_P1;PMS_P2;Temp;Humidity;BMP_temperature;BMP_pressure;BME280_temperature;BME280_humidity;BME280_pressure;Samples;Min_cycle;Max_cycle;Signal;HPM_P1;HPM_P2
2022/05/28 00:00:52;;;;;;;5.60;2.15;;;12.40;99.90;;;;;;4973173;28;20109;-28
2022/05/28 00:03:18;;;;;;;7.38;1.73;;;12.40;99.90;;;;;;4973697;28;20018;-27
2022/05/28 00:05:44;;;;;;;14.52;1.90;;;12.30;99.90;;;;;;4972639;28;20031;-31
2022/05/28 00:08:09;;;;;;;9.52;2.10;;;12.30;99.90;;;;;;4974994;28;20026;-46
2022/05/28 00:10:35;;;;;;;9.35;1.55;;;12.30;99.90;;;;;;4969497;28;20046;-36
2022/05/28 00:13:01;;;;;;;5.68;1.35;;;12.30;99.90;;;;;;4973770;28;20034;-37
2022/05/28 00:15:27;;;;;;;5.60;1.15;;;12.40;99.90;;;;;;4971634;28;20042;-36
2022/05/28 00:17:53;;;;;;;18.13;1.88;;;12.40;99.90;;;;;;4972360;28;20034;-35
2022/05/28 00:20:19;;;;;;;5.65;2.20;;;12.40;99.90;;;;;;4968916;28;20109;-38
2022/05/28 00:22:45;;;;;;;7.20;1.25;;;12.40;99.90;;;;;;4975102;28;20026;-33
2022/05/28 00:25:14;;;;;;;17.38;1.88;;;12.50;99.90;;;;;;4973498;28;20510;-34
2022/05/28 00:27:40;;;;;;;11.75;1.52;;;12.50;99.90;;;;;;4971205;28;20058;-27
2022/05/28 00:30:08;;;;;;;12.70;1.92;;;12.50;99.90;;;;;;4974008;28;20031;-30
2022/05/28 00:32:34;;;;;;;;;;;12.50;99.90;;;;;;4973882;28;20031;-34
2022/05/28 00:35:00;;;;;;;13.50;1.10;;;12.50;99.90;;;;;;4974698;28;20314;-38
2022/05/28 00:37:26;;;;;;;8.18;1.40;;;12.50;99.90;;;;;;4973951;28;20023;-31
2022/05/28 00:39:51;;;;;;;11.02;1.88;;;12.60;99.90;;;;;;4972529;28;20038;-29
2022/05/28 00:42:17;;;;;;;7.57;1.60;;;12.50;99.90;;;;;;4968996;28;20542;-29
2022/05/28 00:44:43;;;;;;;11.93;2.38;;;12.50;99.90;;;;;;4974522;28;20110;-31
2022/05/28 00:47:08;;;;;;;10.85;2.30;;;12.50;99.90;;;;;;4973866;28;20562;-28
2022/05/28 00:49:35;;;;;;;12.00;2.60;;;12.50;99.90;;;;;;4974267;28;20097;-27
2022/05/28 00:52:03;;;;;;;11.15;2.42;;;12.40;99.90;;;;;;4972841;28;20471;-36
2022/05/28 00:54:30;;;;;;;;;;;12.40;99.90;;;;;;4973601;28;20030;-37
2022/05/28 00:56:56;;;;;;;;;;;12.40;99.90;;;;;;4971501;28;19914;-36
2022/05/28 00:59:22;;;;;;;9.68;1.52;;;12.40;99.90;;;;;;4972811;28;19948;-31
2022/05/28 01:01:48;;;;;;;15.20;1.65;;;12.50;99.90;;;;;;4974348;28;20030;-30
2022/05/28 01:04:39;;;;;;;11.88;1.63;;;12.40;99.90;;;;;;4973637;28;20506;-30
2022/05/28 01:07:13;;;;;;;8.02;1.45;;;12.40;99.90;;;;;;4968353;28;20042;-35
2022/05/28 01:10:00;;;;;;;12.02;1.92;;;12.40;99.90;;;;;;4974214;28;20055;-32
2022/05/28 01:12:49;;;;;;;8.50;1.67;;;12.40;99.90;;;;;;4971651;28;20122;-44
2022/05/28 01:15:32;;;;;;;9.15;1.83;;;12.50;99.90;;;;;;4971139;28;20081;-29
2022/05/28 01:18:16;;;;;;;11.73;1.63;;;12.50;99.90;;;;;;4971265;28;20030;-37
2022/05/28 01:20:49;;;;;;;11.73;2.03;;;12.50;99.90;;;;;;4976005;28;20117;-32
2022/05/28 01:23:34;;;;;;;7.25;1.30;;;12.50;99.90;;;;;;4957653;29;20475;-37
2022/05/28 01:26:48;;;;;;;4.20;1.23;;;12.50;99.90;;;;;;4972418;28;20519;-37
2022/05/28 01:29:16;;;;;;;7.60;1.40;;;12.50;99.90;;;;;;4931572;28;20125;-38
2022/05/28 01:31:44;;;;;;;6.53;1.30;;;12.50;99.90;;;;;;4976186;28;20039;-37
2022/05/28 01:34:11;;;;;;;9.75;1.50;;;12.50;99.90;;;;;;4976838;28;20038;-37
2022/05/28 01:36:38;;;;;;;6.68;1.17;;;12.50;99.90;;;;;;4975897;28;20031;-37
2022/05/28 01:39:07;;;;;;;11.50;1.92;;;12.50;99.90;;;;;;4976864;28;20022;-37
2022/05/28 01:41:35;;;;;;;9.57;1.85;;;12.40;99.90;;;;;;4973725;28;20647;-32
2022/05/28 01:44:01;;;;;;;;;;;12.40;99.90;;;;;;4972447;28;20077;-38
2022/05/28 01:46:28;;;;;;;16.88;2.30;;;12.40;99.90;;;;;;4977680;28;19906;-31
2022/05/28 01:48:56;;;;;;;7.28;1.50;;;12.40;99.90;;;;;;4974602;28;20501;-33
2022/05/28 01:51:29;;;;;;;11.25;2.30;;;12.40;99.90;;;;;;4976428;28;20034;-35
2022/05/28 01:54:11;;;;;;;9.60;1.50;;;12.40;99.90;;;;;;4972728;28;20031;-32
2022/05/28 01:56:43;;;;;;;13.05;1.52;;;12.40;99.90;;;;;;4974254;28;20034;-31
2022/05/28 01:59:13;;;;;;;13.73;1.80;;;12.40;99.90;;;;;;4976669;28;20455;-33
2022/05/28 02:01:40;;;;;;;8.15;2.38;;;12.30;99.90;;;;;;4968690;28;20590;-31
2022/05/28 02:04:07;;;;;;;15.15;2.70;;;12.30;99.90;;;;;;4975192;28;20027;-35
2022/05/28 02:06:35;;;;;;;17.40;2.35;;;12.30;99.90;;;;;;4977304;28;20030;-28
2022/05/28 02:09:03;;;;;;;10.52;1.90;;;12.20;99.90;;;;;;4976303;28;20121;-31
2022/05/28 02:11:42;;;;;;;15.57;2.25;;;12.30;99.90;;;;;;4975891;28;20027;-32
2022/05/28 02:14:39;;;;;;;16.55;2.33;;;12.20;99.90;;;;;;4975310;28;20050;-27
2022/05/28 02:17:12;;;;;;;10.07;1.83;;;12.20;99.90;;;;;;4970651;28;20027;-27
2022/05/28 02:19:56;;;;;;;9.45;2.40;;;12.10;99.90;;;;;;4975636;28;20478;-32
2022/05/28 02:22:52;;;;;;;11.75;1.67;;;12.10;99.90;;;;;;4975081;28;20503;-31
2022/05/28 02:25:26;;;;;;;14.45;2.33;;;12.10;99.90;;;;;;4972482;28;20027;-31
2022/05/28 02:27:53;;;;;;;8.23;2.22;;;12.10;99.90;;;;;;4975686;28;20042;-32
2022/05/28 02:30:18;;;;;;;9.20;1.48;;;12.10;99.90;;;;;;4976912;28;20038;-32
2022/05/28 02:32:44;;;;;;;9.35;2.03;;;12.00;99.90;;;;;;4974518;28;20035;-37
2022/05/28 02:35:10;;;;;;;12.50;1.67;;;12.00;99.90;;;;;;4973364;28;20062;-36
2022/05/28 02:37:36;;;;;;;15.90;2.72;;;12.00;99.90;;;;;;4974065;28;20033;-36
2022/05/28 02:40:03;;;;;;;10.70;2.05;;;12.00;99.90;;;;;;4963932;28;20035;-36
2022/05/28 02:42:29;;;;;;;10.05;1.52;;;12.00;99.90;;;;;;4972408;28;20034;-38
2022/05/28 02:44:55;;;;;;;16.63;2.33;;;12.00;99.90;;;;;;4975045;28;20027;-28
2022/05/28 02:47:20;;;;;;;7.50;1.40;;;12.00;99.90;;;;;;4976657;28;20074;-28
2022/05/28 02:49:46;;;;;;;11.60;2.15;;;12.00;99.90;;;;;;4976511;28;20030;-33
2022/05/28 02:52:12;;;;;;;13.95;1.35;;;11.90;99.90;;;;;;4975473;28;20101;-29
2022/05/28 02:54:38;;;;;;;11.40;1.83;;;11.90;99.90;;;;;;4974052;28;20161;-41
2022/05/28 02:57:04;;;;;;;3.92;1.13;;;11.90;99.90;;;;;;4976608;28;20027;-27
2022/05/28 02:59:30;;;;;;;4.60;1.27;;;11.90;99.90;;;;;;4976374;28;20495;-28
2022/05/28 03:01:56;;;;;;;11.68;1.73;;;11.90;99.90;;;;;;4971751;28;20046;-30
2022/05/28 03:04:22;;;;;;;12.13;1.92;;;11.90;99.90;;;;;;4975354;28;20034;-45
2022/05/28 03:06:48;;;;;;;7.88;1.20;;;11.90;99.90;;;;;;4975691;28;20497;-37
2022/05/28 03:09:15;;;;;;;15.90;2.10;;;11.90;99.90;;;;;;4974033;28;20033;-37
2022/05/28 03:11:41;;;;;;;8.60;1.13;;;11.90;99.90;;;;;;4976390;28;20031;-37
2022/05/28 03:14:06;;;;;;;7.75;1.48;;;11.80;99.90;;;;;;4974283;28;20522;-38
2022/05/28 03:16:32;;;;;;;13.40;1.85;;;11.80;99.90;;;;;;4972744;28;20053;-37
2022/05/28 03:18:58;;;;;;;6.32;1.02;;;11.80;99.90;;;;;;4974399;28;20018;-36
2022/05/28 03:21:23;;;;;;;5.38;1.27;;;11.80;99.90;;;;;;4975194;28;20023;-37
2022/05/28 03:23:49;;;;;;;6.63;1.60;;;11.70;99.90;;;;;;4971570;28;20458;-28
2022/05/28 03:26:18;;;;;;;5.03;1.25;;;11.70;99.90;;;;;;4976185;28;20027;-35
2022/05/28 03:28:45;;;;;;;11.15;1.30;;;11.70;99.90;;;;;;4976149;28;20568;-46
2022/05/28 03:31:10;;;;;;;17.27;2.17;;;11.70;99.90;;;;;;4973861;28;20031;-37
2022/05/28 03:33:36;;;;;;;8.80;1.27;;;11.70;99.90;;;;;;4974298;28;20030;-37
2022/05/28 03:36:03;;;;;;;8.25;1.35;;;11.70;99.90;;;;;;4973970;28;20042;-38
2022/05/28 03:38:28;;;;;;;5.40;0.93;;;11.70;99.90;;;;;;4975024;28;20034;-35
2022/05/28 03:40:54;;;;;;;7.63;1.23;;;11.70;99.90;;;;;;4974840;28;20031;-31
2022/05/28 03:43:19;;;;;;;8.48;1.67;;;11.70;99.90;;;;;;4974722;28;20039;-29
2022/05/28 03:45:45;;;;;;;7.75;1.05;;;11.70;99.90;;;;;;4974174;28;20030;-30
2022/05/28 03:48:11;;;;;;;5.25;0.98;;;11.70;99.90;;;;;;4974804;28;20070;-42
2022/05/28 03:50:37;;;;;;;5.00;0.90;;;11.70;99.90;;;;;;4969978;28;20041;-30
2022/05/28 03:53:03;;;;;;;13.43;1.27;;;11.60;99.90;;;;;;4973170;28;20113;-33
2022/05/28 03:55:29;;;;;;;1.92;0.70;;;11.60;99.90;;;;;;4972173;28;20759;-30
2022/05/28 03:57:55;;;;;;;3.65;0.82;;;11.60;99.90;;;;;;4974463;28;20542;-29
2022/05/28 04:00:21;;;;;;;10.52;0.85;;;11.60;99.90;;;;;;4974862;28;20023;-26
2022/05/28 04:02:47;;;;;;;7.68;1.35;;;11.60;99.90;;;;;;4971647;28;20118;-27
2022/05/28 04:05:13;;;;;;;9.88;1.02;;;11.60;99.90;;;;;;4962915;28;20046;-29
2022/05/28 04:07:40;;;;;;;7.43;0.90;;;11.60;99.90;;;;;;4974656;28;20475;-27
2022/05/28 04:10:07;;;;;;;4.70;0.90;;;11.60;99.90;;;;;;4970592;28;20055;-28
2022/05/28 04:12:33;;;;;;;4.45;1.23;;;11.60;99.90;;;;;;4970911;28;20451;-30
2022/05/28 04:14:59;;;;;;;4.32;0.60;;;11.60;99.90;;;;;;4973362;28;20109;-29
2022/05/28 04:17:25;;;;;;;3.20;0.93;;;11.70;99.90;;;;;;4970863;28;20102;-29
2022/05/28 04:19:51;;;;;;;10.80;1.15;;;11.70;99.90;;;;;;4974774;28;20089;-33
2022/05/28 04:22:17;;;;;;;5.25;0.77;;;11.70;99.90;;;;;;4973014;28;20054;-33
2022/05/28 04:24:43;;;;;;;6.80;0.82;;;11.80;99.90;;;;;;4972344;28;20031;-28
2022/05/28 04:27:09;;;;;;;3.90;1.33;;;11.70;99.90;;;;;;4971159;28;20054;-28
2022/05/28 04:29:34;;;;;;;9.02;0.82;;;11.80;99.90;;;;;;4972039;28;20047;-31
2022/05/28 04:32:00;;;;;;;6.30;0.70;;;11.90;99.90;;;;;;4974744;28;20545;-30
2022/05/28 04:34:26;;;;;;;8.57;0.70;;;11.90;99.90;;;;;;4974090;28;20027;-28
2022/05/28 04:36:51;;;;;;;4.05;0.68;;;11.90;99.90;;;;;;4971545;28;20034;-30
2022/05/28 04:39:17;;;;;;;11.68;0.75;;;11.90;99.90;;;;;;4973015;28;20463;-32
2022/05/28 04:41:43;;;;;;;4.15;1.83;;;11.90;99.90;;;;;;4973967;28;20034;-31
2022/05/28 04:44:09;;;;;;;3.97;1.10;;;11.90;99.90;;;;;;4973642;28;20039;-28
2022/05/28 04:46:34;;;;;;;6.88;1.33;;;11.90;99.90;;;;;;4972271;28;20026;-29
2022/05/28 04:49:00;;;;;;;2.03;0.68;;;11.90;99.90;;;;;;4970602;28;20037;-29
2022/05/28 04:51:26;;;;;;;8.57;1.20;;;11.90;99.90;;;;;;4971404;28;20049;-28
2022/05/28 04:53:51;;;;;;;3.50;0.60;;;11.90;99.90;;;;;;4973211;28;20090;-37
2022/05/28 04:56:17;;;;;;;4.40;0.90;;;11.80;99.90;;;;;;4971888;28;20419;-37
2022/05/28 04:58:43;;;;;;;5.57;1.00;;;11.90;99.90;;;;;;4972948;28;20102;-37
2022/05/28 05:01:13;;;;;;;13.23;1.25;;;11.90;99.90;;;;;;4971581;28;20031;-46
2022/05/28 05:03:39;;;;;;;7.97;0.85;;;11.90;99.90;;;;;;4961191;28;20050;-36
2022/05/28 05:06:05;;;;;;;9.15;0.77;;;12.00;99.90;;;;;;4972375;28;20031;-37
2022/05/28 05:08:30;;;;;;;6.97;1.05;;;12.00;99.90;;;;;;4972421;28;20038;-37
2022/05/28 05:10:56;;;;;;;6.05;0.85;;;12.10;99.90;;;;;;4974331;28;20635;-37
2022/05/28 05:13:22;;;;;;;11.60;1.38;;;12.10;99.90;;;;;;4974323;28;20034;-37
2022/05/28 05:15:48;;;;;;;4.90;0.70;;;12.00;99.90;;;;;;4972749;28;20027;-36
2022/05/28 05:18:13;;;;;;;7.47;0.93;;;12.10;99.90;;;;;;4969810;28;20026;-38
2022/05/28 05:20:39;;;;;;;7.88;0.90;;;12.00;99.90;;;;;;4973343;28;20490;-36
2022/05/28 05:23:05;;;;;;;9.40;1.33;;;12.00;99.90;;;;;;4974255;28;20030;-37
2022/05/28 05:25:31;;;;;;;3.50;0.60;;;12.10;99.90;;;;;;4973448;28;20033;-37
2022/05/28 05:27:57;;;;;;;11.15;1.80;;;12.10;99.90;;;;;;4969982;28;20031;-38
2022/05/28 05:30:22;;;;;;;6.82;0.93;;;12.10;99.90;;;;;;4971729;28;20398;-38
2022/05/28 05:32:48;;;;;;;5.57;1.17;;;12.20;99.90;;;;;;4973316;28;20495;-38
2022/05/28 05:35:14;;;;;;;5.25;0.82;;;12.30;99.90;;;;;;4972876;28;20070;-38
2022/05/28 05:37:40;;;;;;;5.10;1.23;;;12.30;99.90;;;;;;4969509;28;20057;-38
2022/05/28 05:40:06;;;;;;;4.25;0.98;;;12.30;99.90;;;;;;4973262;28;20481;-38
2022/05/28 05:42:32;;;;;;;11.43;1.33;;;12.40;99.90;;;;;;4973297;28;20069;-37
2022/05/28 05:44:58;;;;;;;4.88;0.93;;;12.50;99.90;;;;;;4970171;28;20067;-42
2022/05/28 05:47:23;;;;;;;2.65;1.00;;;12.50;99.90;;;;;;4969881;28;20120;-43
2022/05/28 05:49:50;;;;;;;12.48;1.70;;;12.50;99.90;;;;;;4973152;28;20034;-37
2022/05/28 05:52:16;;;;;;;9.35;1.27;;;12.50;99.90;;;;;;4974282;28;20582;-38
2022/05/28 05:54:41;;;;;;;2.58;0.80;;;12.50;99.90;;;;;;4972355;28;20137;-37
2022/05/28 05:57:07;;;;;;;6.72;0.88;;;12.60;99.90;;;;;;4968949;28;20118;-36
2022/05/28 05:59:32;;;;;;;6.60;1.05;;;12.60;99.90;;;;;;4973382;28;20027;-30
2022/05/28 06:01:58;;;;;;;2.97;0.93;;;12.60;99.90;;;;;;4974777;28;20019;-31
2022/05/28 06:04:24;;;;;;;10.50;1.15;;;12.70;99.90;;;;;;4976452;28;20394;-32
2022/05/28 06:06:49;;;;;;;7.03;1.48;;;12.90;99.90;;;;;;4965983;28;20075;-31
2022/05/28 06:09:15;;;;;;;5.13;1.17;;;13.00;99.90;;;;;;4970349;28;20027;-32
2022/05/28 06:11:41;;;;;;;9.25;0.98;;;13.10;99.90;;;;;;4977161;28;20495;-32
2022/05/28 06:14:06;;;;;;;2.55;0.95;;;13.30;99.90;;;;;;4977298;28;20038;-33
2022/05/28 06:16:32;;;;;;;6.60;0.77;;;13.40;99.90;;;;;;4972960;28;20024;-44
2022/05/28 06:18:58;;;;;;;5.15;1.27;;;13.70;99.90;;;;;;4989248;28;20035;-52
2022/05/28 06:21:25;;;;;;;2.40;0.60;;;15.30;99.90;;;;;;4974897;28;20479;-37
2022/05/28 06:23:50;;;;;;;8.07;0.90;;;16.60;99.90;;;;;;4977086;28;20031;-32
2022/05/28 06:26:16;;;;;;;6.22;0.75;;;18.10;99.90;;;;;;4986177;28;20489;-33
2022/05/28 06:28:42;;;;;;;4.30;0.60;;;18.40;99.90;;;;;;4975491;28;20046;-32
2022/05/28 06:31:10;;;;;;;5.78;0.95;;;18.80;99.90;;;;;;4976984;28;20041;-34
2022/05/28 06:33:37;;;;;;;8.43;1.23;;;18.70;99.80;;;;;;4976820;28;20034;-29
2022/05/28 06:36:05;;;;;;;2.10;0.60;;;18.90;99.00;;;;;;4972659;28;20028;-30
2022/05/28 06:38:31;;;;;;;2.30;0.60;;;19.10;98.80;;;;;;4975812;28;20431;-42
2022/05/28 06:40:57;;;;;;;4.40;0.82;;;19.30;98.60;;;;;;4970978;28;20030;-36
2022/05/28 06:43:23;;;;;;;5.25;0.90;;;18.60;99.00;;;;;;4964138;28;20383;-33
2022/05/28 06:45:49;;;;;;;2.90;0.77;;;17.70;99.80;;;;;;4974818;28;20034;-38
2022/05/28 06:48:15;;;;;;;7.07;0.90;;;16.60;99.90;;;;;;4974594;28;20030;-38
2022/05/28 06:53:26;;;;;;;5.28;1.30;;;14.90;99.90;;;;;;4974146;28;20459;-38
2022/05/28 06:55:51;;;;;;;6.60;1.10;;;14.60;99.90;;;;;;4974036;28;20113;-32
2022/05/28 06:58:17;;;;;;;1.73;0.55;;;14.70;99.90;;;;;;4971980;28;20463;-37
2022/05/28 07:00:43;;;;;;;9.43;1.00;;;14.90;99.90;;;;;;4973683;28;20023;-37
2022/05/28 07:03:14;;;;;;;6.30;1.02;;;14.90;99.90;;;;;;4974986;28;20023;-39
2022/05/28 07:05:40;;;;;;;3.70;0.90;;;14.60;99.90;;;;;;4968415;28;20043;-38
2022/05/28 07:08:06;;;;;;;6.43;0.77;;;15.40;99.90;;;;;;4971273;28;20033;-37
2022/05/28 07:10:31;;;;;;;5.63;0.80;;;17.10;99.90;;;;;;4971455;28;20510;-35
2022/05/28 07:12:57;;;;;;;4.78;0.63;;;18.20;99.60;;;;;;4965042;28;20106;-33
2022/05/28 07:15:23;;;;;;;4.95;0.70;;;18.00;99.70;;;;;;4969857;28;20022;-30
2022/05/28 07:17:49;;;;;;;3.15;0.70;;;17.90;99.20;;;;;;4968794;28;20494;-30
2022/05/28 07:20:15;;;;;;;6.32;1.20;;;17.30;99.70;;;;;;4972018;28;20027;-32
2022/05/28 07:22:41;;;;;;;3.25;0.50;;;17.40;99.30;;;;;;4973809;28;20537;-32
2022/05/28 07:25:07;;;;;;;11.30;1.15;;;17.80;99.10;;;;;;4975335;28;20043;-41
2022/05/28 07:27:33;;;;;;;2.65;0.50;;;17.40;99.20;;;;;;4972741;28;20030;-35
2022/05/28 07:29:58;;;;;;;5.25;0.98;;;16.60;99.90;;;;;;4972295;28;20023;-29
2022/05/28 07:32:29;;;;;;;9.55;0.88;;;15.80;99.90;;;;;;4975565;28;20026;-31
2022/05/28 07:34:55;;;;;;;3.17;0.70;;;15.50;99.90;;;;;;4974906;28;20033;-30
2022/05/28 07:37:20;;;;;;;4.20;0.80;;;15.00;99.90;;;;;;4974175;28;20014;-33
2022/05/28 07:39:46;;;;;;;4.13;0.88;;;14.70;99.90;;;;;;4975416;28;20038;-28
2022/05/28 07:42:12;;;;;;;2.63;0.77;;;14.40;99.90;;;;;;4972897;28;20065;-30
2022/05/28 07:44:37;;;;;;;4.47;1.05;;;14.40;99.90;;;;;;4974923;28;20031;-33
2022/05/28 07:47:04;;;;;;;6.95;1.00;;;14.50;99.90;;;;;;4975507;28;20038;-34
2022/05/28 07:49:30;;;;;;;7.00;0.90;;;14.60;99.90;;;;;;4975599;28;20030;-29
2022/05/28 07:51:56;;;;;;;7.13;0.85;;;14.70;99.90;;;;;;4971873;28;20037;-34
2022/05/28 07:54:21;;;;;;;9.02;1.33;;;14.90;99.90;;;;;;4970978;28;20058;-28
2022/05/28 07:56:47;;;;;;;4.28;0.60;;;15.00;99.90;;;;;;4972310;28;20035;-42
2022/05/28 07:59:12;;;;;;;2.92;1.38;;;15.30;99.90;;;;;;4974340;28;20467;-27
2022/05/28 08:01:41;;;;;;;5.40;1.10;;;15.50;99.90;;;;;;4972886;28;20018;-33
2022/05/28 08:04:09;;;;;;;5.78;0.60;;;15.40;99.90;;;;;;4971034;28;20058;-32
2022/05/28 08:06:35;;;;;;;;;;;15.40;99.90;;;;;;4973403;28;20023;-30
2022/05/28 08:09:01;;;;;;;6.55;1.35;;;15.40;99.90;;;;;;4973250;28;19910;-29
2022/05/28 08:11:26;;;;;;;4.40;1.55;;;15.60;99.90;;;;;;4973368;28;20023;-47
2022/05/28 08:13:53;;;;;;;5.25;0.73;;;15.60;99.60;;;;;;4971952;28;20506;-39
2022/05/28 08:16:19;;;;;;;6.40;1.38;;;15.60;99.50;;;;;;4973410;28;20066;-36
2022/05/28 08:18:45;;;;;;;8.35;1.10;;;15.70;99.50;;;;;;4976156;28;20052;-39
2022/05/28 08:24:13;;;;;;;7.35;0.93;;;15.60;99.70;;;;;;4972647;28;20198;-37
2022/05/28 08:26:39;;;;;;;3.97;0.80;;;16.00;99.50;;;;;;4973566;28;20567;-34
2022/05/28 08:29:05;;;;;;;8.05;1.95;;;15.40;99.70;;;;;;4972717;28;20407;-39
2022/05/28 08:31:30;;;;;;;3.95;1.00;;;14.80;99.90;;;;;;4974501;28;20049;-37
2022/05/28 08:33:57;;;;;;;9.70;1.17;;;14.70;99.90;;;;;;4974252;28;20562;-44
2022/05/28 08:36:24;;;;;;;5.80;1.85;;;15.10;99.90;;;;;;4973271;28;20047;-59
2022/05/28 08:38:49;;;;;;;4.10;1.07;;;15.40;99.90;;;;;;4974716;28;20416;-38
2022/05/28 08:41:25;;;;;;;4.20;1.40;;;15.90;99.80;;;;;;4973539;28;20065;-37
2022/05/28 08:44:08;;;;;;;1.77;0.57;;;16.30;99.60;;;;;;4963054;28;20027;-37
2022/05/28 08:46:35;;;;;;;7.10;1.45;;;16.50;98.80;;;;;;4969716;28;20062;-38
2022/05/28 08:49:01;;;;;;;7.15;1.08;;;16.20;98.90;;;;;;4971712;28;20031;-40
2022/05/28 08:51:53;;;;;;;7.80;0.93;;;16.20;99.10;;;;;;4971517;28;20430;-39
2022/05/28 08:54:40;;;;;;;2.88;0.80;;;16.30;98.60;;;;;;4967737;28;20509;-34
2022/05/28 08:57:12;;;;;;;4.07;0.70;;;16.60;98.50;;;;;;4970032;28;20089;-38
2022/05/28 08:59:50;;;;;;;3.88;0.98;;;16.80;98.30;;;;;;4974381;28;20038;-38
2022/05/28 09:02:41;;;;;;;6.72;1.00;;;16.30;98.50;;;;;;4968922;28;20034;-39
2022/05/28 09:05:27;;;;;;;5.25;0.63;;;15.80;98.90;;;;;;4967904;28;20029;-37
2022/05/28 09:07:56;;;;;;;9.32;1.17;;;15.30;99.70;;;;;;4970987;28;20491;-38
2022/05/28 09:10:21;;;;;;;5.43;1.42;;;15.10;99.90;;;;;;4965652;28;20034;-37
2022/05/28 09:12:55;;;;;;;9.82;1.38;;;15.30;99.70;;;;;;4974257;28;20485;-38
2022/05/28 09:15:22;;;;;;;3.35;0.90;;;15.70;99.40;;;;;;4956972;28;20086;-35
2022/05/28 09:17:50;;;;;;;8.70;1.60;;;16.10;99.50;;;;;;4972204;28;20483;-35
2022/05/28 09:20:21;;;;;;;4.45;1.40;;;15.90;98.70;;;;;;4969793;28;20118;-36
2022/05/28 09:22:47;;;;;;;3.58;0.80;;;16.20;98.40;;;;;;4973465;28;20399;-38
2022/05/28 09:25:17;;;;;;;5.47;0.82;;;16.40;97.80;;;;;;4974195;28;20387;-38
2022/05/28 09:28:10;;;;;;;9.93;1.40;;;16.30;98.30;;;;;;4970580;28;20561;-38
2022/05/28 09:31:02;;;;;;;2.92;0.88;;;16.40;99.00;;;;;;4973743;28;20118;-36
2022/05/28 09:33:47;;;;;;;3.20;0.63;;;16.30;98.90;;;;;;4973559;28;20026;-38
2022/05/28 09:36:42;;;;;;;9.40;1.02;;;15.50;99.30;;;;;;4965195;28;20039;-38
2022/05/28 09:39:11;;;;;;;5.53;1.02;;;15.10;99.90;;;;;;4973508;28;20030;-37
2022/05/28 09:41:46;;;;;;;8.13;1.73;;;15.40;99.90;;;;;;4975734;28;20475;-37
2022/05/28 09:44:35;;;;;;;3.70;1.63;;;15.80;99.30;;;;;;4977507;28;20095;-37
2022/05/28 09:47:16;;;;;;;8.35;1.00;;;16.20;99.20;;;;;;4942304;28;20043;-38
2022/05/28 09:49:51;;;;;;;15.05;1.25;;;16.10;98.80;;;;;;4976452;28;20062;-37
2022/05/28 09:52:34;;;;;;;8.27;2.63;;;15.90;99.20;;;;;;4976445;28;20483;-37
2022/05/28 09:55:17;;;;;;;8.57;0.98;;;15.70;99.90;;;;;;4975887;28;20121;-40
2022/05/28 09:57:51;;;;;;;4.97;1.25;;;16.10;98.30;;;;;;4967412;28;20035;-37
2022/05/28 10:00:21;;;;;;;5.18;0.85;;;16.10;98.90;;;;;;4960122;28;20132;-37
2022/05/28 10:05:53;;;;;;;11.13;1.15;;;17.00;98.70;;;;;;4985979;28;20126;-38
2022/05/28 10:08:19;;;;;;;12.18;1.45;;;17.10;98.50;;;;;;4977197;28;20031;-54
2022/05/28 10:10:59;;;;;;;9.60;1.17;;;17.30;98.10;;;;;;4976415;28;20026;-38
2022/05/28 10:13:28;;;;;;;6.95;0.95;;;17.60;98.00;;;;;;4977147;28;20054;-41
2022/05/28 10:15:56;;;;;;;2.30;0.70;;;17.00;97.50;;;;;;4975727;28;20427;-38
2022/05/28 10:18:46;;;;;;;6.47;0.60;;;16.00;97.60;;;;;;4977148;28;20023;-58
2022/05/28 10:21:18;;;;;;;8.32;1.08;;;15.70;98.20;;;;;;4975675;28;20101;-52
2022/05/28 10:23:51;;;;;;;1.45;0.52;;;15.90;97.90;;;;;;4972920;28;20031;-34
2022/05/28 10:26:30;;;;;;;3.88;0.80;;;16.30;97.80;;;;;;4973286;28;20483;-38
2022/05/28 10:29:40;;;;;;;3.50;0.80;;;16.70;96.60;;;;;;4967771;28;20019;-31
2022/05/28 10:32:44;;;;;;;5.13;0.93;;;17.00;96.50;;;;;;4931597;28;20047;-31
2022/05/28 10:35:28;;;;;;;7.60;1.20;;;16.80;96.30;;;;;;4959725;28;20035;-30
2022/05/28 10:38:05;;;;;;;9.65;1.17;;;16.50;97.50;;;;;;4967149;28;20033;-37
2022/05/28 10:40:30;;;;;;;2.80;0.85;;;16.40;97.50;;;;;;4970252;28;20023;-36
2022/05/28 10:42:59;;;;;;;5.80;0.90;;;16.20;97.70;;;;;;4970002;28;20053;-38
2022/05/28 10:45:30;;;;;;;10.18;1.02;;;15.80;99.30;;;;;;4972207;28;20033;-36
2022/05/28 10:48:21;;;;;;;6.18;1.58;;;15.50;99.90;;;;;;4961643;28;20034;-37
2022/05/28 10:51:11;;;;;;;8.48;0.90;;;15.70;99.90;;;;;;4964950;28;20038;-31
2022/05/28 10:54:12;;;;;;;6.32;1.38;;;15.90;99.90;;;;;;4966592;28;20078;-33
2022/05/28 10:57:01;;;;;;;5.57;1.17;;;16.10;99.90;;;;;;4970806;28;20031;-31
2022/05/28 10:59:29;;;;;;;5.15;0.95;;;16.00;99.20;;;;;;4967521;28;20529;-30
2022/05/28 11:02:15;;;;;;;4.60;1.15;;;15.70;99.90;;;;;;4966625;28;20161;-35
2022/05/28 11:05:00;;;;;;;10.73;1.48;;;15.20;99.10;;;;;;4980073;28;20431;-33
2022/05/28 11:07:49;;;;;;;7.80;1.20;;;15.20;99.90;;;;;;4966230;28;20031;-31
2022/05/28 11:10:27;;;;;;;6.45;1.10;;;15.80;99.70;;;;;;4968065;28;20759;-42
2022/05/28 11:13:04;;;;;;;3.97;0.95;;;16.30;99.20;;;;;;4967764;28;20022;-36
2022/05/28 11:15:39;;;;;;;4.95;0.88;;;16.50;97.80;;;;;;4967684;28;20512;-34
2022/05/28 11:18:33;;;;;;;5.07;0.80;;;16.20;97.80;;;;;;4968202;28;20387;-37
2022/05/28 11:21:17;;;;;;;5.53;0.93;;;15.90;97.50;;;;;;4972834;28;20043;-37
2022/05/28 11:24:04;;;;;;;1.60;0.63;;;16.30;97.80;;;;;;4967144;28;20031;-35
2022/05/28 11:26:51;;;;;;;3.15;0.47;;;16.20;95.60;;;;;;4967139;28;20031;-35
2022/05/28 11:29:19;;;;;;;2.05;0.52;;;15.90;95.30;;;;;;4966778;28;20037;-36
2022/05/28 11:31:51;;;;;;;10.38;0.90;;;15.90;96.00;;;;;;4968057;28;20167;-36
2022/05/28 11:34:33;;;;;;;2.80;0.98;;;16.20;96.40;;;;;;4966026;28;20062;-36
2022/05/28 11:37:39;;;;;;;3.75;0.82;;;16.40;96.50;;;;;;4966081;28;20033;-37
2022/05/28 11:40:14;;;;;;;5.03;1.13;;;16.10;96.30;;;;;;4964364;28;20074;-40
2022/05/28 11:42:55;;;;;;;5.38;0.90;;;15.60;97.10;;;;;;4966976;28;22007;-30
2022/05/28 11:45:40;;;;;;;4.50;1.20;;;15.40;98.30;;;;;;4965559;28;20031;-35
2022/05/28 11:51:30;;;;;;;6.22;1.77;;;16.00;98.60;;;;;;4945737;28;20273;-28
2022/05/28 11:54:12;;;;;;;3.58;0.98;;;16.30;97.30;;;;;;4965512;28;20124;-28
2022/05/28 11:56:37;;;;;;;8.20;1.73;;;16.40;97.90;;;;;;4964612;28;20495;-31
2022/05/28 11:59:15;;;;;;;6.55;1.33;;;16.10;98.20;;;;;;4965761;28;20077;-32
2022/05/28 12:02:05;;;;;;;3.08;1.67;;;15.90;99.30;;;;;;4961063;28;20538;-31
2022/05/28 12:04:31;;;;;;;7.90;1.48;;;16.00;99.90;;;;;;4966088;28;20538;-32
2022/05/28 12:07:02;;;;;;;8.77;1.13;;;16.20;99.90;;;;;;4966439;28;20035;-29
2022/05/28 12:09:32;;;;;;;9.68;2.42;;;16.60;99.90;;;;;;4962775;28;20461;-40
2022/05/28 12:12:24;;;;;;;9.18;2.20;;;16.90;99.90;;;;;;4963434;28;20027;-31
2022/05/28 12:15:26;;;;;;;8.48;1.33;;;17.20;99.70;;;;;;4964191;28;20114;-37
2022/05/28 12:18:14;;;;;;;6.50;1.10;;;17.10;98.10;;;;;;4969524;28;20479;-37
2022/05/28 12:20:56;;;;;;;2.22;0.70;;;16.80;97.80;;;;;;4967631;28;20582;-36
2022/05/28 12:23:30;;;;;;;6.63;1.20;;;16.60;98.40;;;;;;4965753;28;20030;-60
2022/05/28 12:25:56;;;;;;;7.45;1.40;;;16.50;99.00;;;;;;4972336;28;20042;-38
2022/05/28 12:28:29;;;;;;;18.13;1.55;;;16.60;99.60;;;;;;4973333;28;20510;-36
2022/05/28 12:30:57;;;;;;;3.22;1.17;;;16.30;99.30;;;;;;4970485;28;20386;-37
2022/05/28 12:33:31;;;;;;;4.90;0.90;;;16.20;98.30;;;;;;4942559;28;20757;-31
2022/05/28 12:36:38;;;;;;;6.82;1.08;;;16.40;97.80;;;;;;4968492;28;20519;-35
2022/05/28 12:39:22;;;;;;;8.40;0.93;;;16.70;97.90;;;;;;4965629;28;20071;-37
2022/05/28 12:42:03;;;;;;;6.60;0.90;;;16.70;97.20;;;;;;4971003;28;20023;-36
2022/05/28 12:44:29;;;;;;;4.57;1.10;;;16.90;96.30;;;;;;4973159;28;20034;-37
2022/05/28 12:46:59;;;;;;;3.00;0.80;;;17.10;97.10;;;;;;4968584;28;20035;-37
2022/05/28 12:49:31;;;;;;;5.40;0.75;;;16.90;97.00;;;;;;4972213;28;20053;-36
2022/05/28 12:52:18;;;;;;;16.52;1.63;;;16.60;97.30;;;;;;4967571;28;20028;-36
2022/05/28 12:54:43;;;;;;;5.90;1.23;;;15.90;97.30;;;;;;4963697;28;20101;-35
2022/05/28 12:57:11;;;;;;;7.68;1.10;;;15.80;98.00;;;;;;4957846;28;20479;-35
2022/05/28 12:59:43;;;;;;;3.75;0.80;;;15.90;98.00;;;;;;4954081;28;20039;-33
2022/05/28 13:02:33;;;;;;;11.10;1.30;;;15.80;97.00;;;;;;4961816;28;20657;-28
2022/05/28 13:05:06;;;;;;;3.92;0.75;;;15.50;96.80;;;;;;4959425;28;20475;-28
2022/05/28 13:07:42;;;;;;;4.82;0.98;;;15.80;96.10;;;;;;4960800;28;20023;-34
2022/05/28 13:10:19;;;;;;;3.13;0.80;;;16.20;96.10;;;;;;4957259;28;20034;-35
2022/05/28 13:12:57;;;;;;;4.90;1.23;;;16.60;96.40;;;;;;4970995;28;20498;-29
2022/05/28 13:16:08;;;;;;;8.48;1.48;;;16.90;95.70;;;;;;4975920;28;20479;-31
2022/05/28 13:18:47;;;;;;;8.32;0.75;;;16.30;96.30;;;;;;4958349;28;20035;-31